createdAt,value
2023-05-09T00:00:05.357Z,85.52
2023-05-09T00:05:30.720Z,86.03
2023-05-09T00:10:36.329Z,86.25
2023-05-09T00:15:42.031Z,86.34
2023-05-09T00:20:47.627Z,85.90
2023-05-09T00:25:53.122Z,86.33
2023-05-09T00:30:58.513Z,86.95
2023-05-09T00:36:04.283Z,87.22
2023-05-09T00:41:09.850Z,87.16
2023-05-09T00:46:15.329Z,87.08
2023-05-09T00:51:21.889Z,87.63
2023-05-09T00:56:27.486Z,87.58
2023-05-09T01:01:32.925Z,87.13
2023-05-09T01:06:48.785Z,87.21
2023-05-09T01:12:11.979Z,87.73
2023-05-09T01:17:27.771Z,87.89
2023-05-09T01:22:36.439Z,88.15
2023-05-09T01:27:53.619Z,88.54
2023-05-09T01:33:05.250Z,88.90
2023-05-09T01:38:16.887Z,88.91
2023-05-09T01:43:25.834Z,89.14
2023-05-09T01:48:34.777Z,88.96
2023-05-09T01:53:42.385Z,89.30
2023-05-09T01:58:50.084Z,89.42
2023-05-09T02:03:56.167Z,89.44
2023-05-09T02:09:03.061Z,89.49
2023-05-09T02:14:08.706Z,89.77
2023-05-09T02:19:14.109Z,89.88
2023-05-09T02:24:19.648Z,89.71
2023-05-09T02:29:30.964Z,90.35
2023-05-09T02:34:37.841Z,90.14
2023-05-09T02:39:44.147Z,90.73
2023-05-09T02:44:49.582Z,90.93
2023-05-09T02:49:55.338Z,90.86
2023-05-09T02:55:00.861Z,90.64
2023-05-09T03:00:11.645Z,90.08
2023-05-09T03:05:18.323Z,89.93
2023-05-09T03:10:23.838Z,90.19
2023-05-09T03:15:29.559Z,90.71
2023-05-09T03:20:36.491Z,90.96
2023-05-09T03:25:42.411Z,91.68
2023-05-09T03:30:48.096Z,92.01
2023-05-09T03:35:54.662Z,92.25
2023-05-09T03:41:00.466Z,92.46
2023-05-09T03:46:06.529Z,92.50
2023-05-09T03:51:13.041Z,92.56
2023-05-09T03:56:19.979Z,93.34
2023-05-09T04:01:28.443Z,93.73
2023-05-09T04:06:35.811Z,93.96
2023-05-09T04:11:41.721Z,94.29
2023-05-09T04:16:49.484Z,92.62
2023-05-09T04:21:55.040Z,88.90
2023-05-09T04:27:01.135Z,80.41
2023-05-09T04:32:06.958Z,69.12
2023-05-09T04:37:13.295Z,59.91
2023-05-09T04:42:21.022Z,52.95
2023-05-09T04:47:26.634Z,47.20
2023-05-09T04:52:32.108Z,42.44
2023-05-09T04:57:37.486Z,38.71
2023-05-09T05:02:43.054Z,37.13
2023-05-09T05:07:48.672Z,35.08
2023-05-09T05:12:56.499Z,33.38
2023-05-09T05:18:02.280Z,32.11
2023-05-09T05:23:13.420Z,30.83
2023-05-09T05:28:18.885Z,28.87
2023-05-09T05:33:30.732Z,28.00
2023-05-09T05:38:37.676Z,27.25
2023-05-09T05:43:43.345Z,25.80
2023-05-09T05:48:49.179Z,25.31
2023-05-09T05:54:06.329Z,23.97
2023-05-09T05:59:13.569Z,23.16
2023-05-09T06:04:19.799Z,22.60
2023-05-09T06:09:26.176Z,21.88
2023-05-09T06:14:31.618Z,21.29
2023-05-09T06:19:37.786Z,20.95
2023-05-09T06:24:43.432Z,20.65
2023-05-09T06:29:49.100Z,20.11
2023-05-09T06:34:54.659Z,19.43
2023-05-09T06:40:00.299Z,17.97
2023-05-09T06:45:07.048Z,17.87
2023-05-09T06:50:11.379Z,17.17
2023-05-09T06:55:17.304Z,16.19
2023-05-09T07:00:23.912Z,15.46
2023-05-09T07:05:29.435Z,14.42
2023-05-09T07:10:35.286Z,13.61
2023-05-09T07:15:42.714Z,13.42
2023-05-09T07:20:48.868Z,12.99
2023-05-09T07:25:58.851Z,13.08
2023-05-09T07:31:05.974Z,13.29
2023-05-09T07:36:13.642Z,13.06
2023-05-09T07:41:18.920Z,13.14
2023-05-09T07:46:24.326Z,12.11
2023-05-09T07:51:29.850Z,12.41
2023-05-09T07:56:35.232Z,11.57
2023-05-09T08:01:40.762Z,11.38
2023-05-09T08:06:46.360Z,11.94
2023-05-09T08:11:52.185Z,12.26
2023-05-09T08:16:57.889Z,12.41
2023-05-09T08:22:03.375Z,12.29
2023-05-09T08:27:08.685Z,11.74
2023-05-09T08:32:14.404Z,11.79
2023-05-09T08:37:19.781Z,12.07
2023-05-09T08:42:27.153Z,11.89
2023-05-09T08:47:36.998Z,11.75
2023-05-09T08:52:42.820Z,12.80
2023-05-09T08:57:48.956Z,12.32
2023-05-09T09:02:56.565Z,12.35
2023-05-09T09:08:03.876Z,12.91
2023-05-09T09:13:10.071Z,13.46
2023-05-09T09:18:20.990Z,13.77
2023-05-09T09:23:28.934Z,14.34
2023-05-09T09:28:35.017Z,13.22
2023-05-09T09:33:40.479Z,13.41
2023-05-09T09:38:46.053Z,13.23
2023-05-09T09:43:51.602Z,13.70
2023-05-09T09:48:59.097Z,13.19
2023-05-09T09:54:06.710Z,13.83
2023-05-09T09:59:14.275Z,14.14
2023-05-09T10:04:19.798Z,13.52
2023-05-09T10:09:26.793Z,13.99
2023-05-09T10:14:35.289Z,13.95
2023-05-09T10:19:45.907Z,13.85
2023-05-09T10:25:03.767Z,14.30
2023-05-09T10:30:13.738Z,13.68
2023-05-09T10:35:20.862Z,14.38
2023-05-09T10:40:27.859Z,14.87
2023-05-09T10:45:34.115Z,14.92
2023-05-09T10:50:40.673Z,15.03
2023-05-09T10:55:56.428Z,14.75
2023-05-09T11:01:03.709Z,14.83
2023-05-09T11:06:09.361Z,15.13
2023-05-09T11:11:27.047Z,15.17
2023-05-09T11:16:52.414Z,15.15
2023-05-09T11:22:13.639Z,15.35
2023-05-09T11:27:22.792Z,16.57
2023-05-09T11:32:44.477Z,16.41
2023-05-09T11:37:58.497Z,17.41
2023-05-09T11:43:22.794Z,18.39
2023-05-09T11:48:40.372Z,17.84
2023-05-09T11:53:49.710Z,18.01
2023-05-09T11:58:55.407Z,18.84
2023-05-09T12:04:02.220Z,18.61
2023-05-09T12:09:09.152Z,18.68
2023-05-09T12:14:29.097Z,18.93
2023-05-09T12:19:34.596Z,19.12
2023-05-09T12:24:40.007Z,18.84
2023-05-09T12:29:47.593Z,20.29
2023-05-09T12:34:54.235Z,20.25
2023-05-09T12:40:11.252Z,19.93
2023-05-09T12:45:17.316Z,20.02
2023-05-09T12:50:31.090Z,20.48
2023-05-09T12:55:41.934Z,20.16
2023-05-09T13:00:47.571Z,19.74
2023-05-09T13:06:05.367Z,20.00
2023-05-09T13:11:16.754Z,20.87
2023-05-09T13:16:22.866Z,21.61
2023-05-09T13:21:31.565Z,21.44
2023-05-09T13:26:36.987Z,21.30
2023-05-09T13:31:42.470Z,21.41
2023-05-09T13:36:47.836Z,21.49
2023-05-09T13:41:53.363Z,21.87
2023-05-09T13:47:00.340Z,21.95
2023-05-09T13:52:06.757Z,21.75
2023-05-09T13:57:12.634Z,22.44
2023-05-09T14:02:18.825Z,22.85
2023-05-09T14:07:24.490Z,22.59
2023-05-09T14:12:30.282Z,22.96
2023-05-09T14:17:35.654Z,22.89
2023-05-09T14:22:41.673Z,22.74
2023-05-09T14:27:47.577Z,22.44
2023-05-09T14:32:52.914Z,23.01
2023-05-09T14:37:58.503Z,23.31
2023-05-09T14:43:03.828Z,23.73
2023-05-09T14:48:10.474Z,24.32
2023-05-09T14:53:17.055Z,24.34
2023-05-09T14:58:23.794Z,24.33
2023-05-09T15:03:29.120Z,24.00
2023-05-09T15:08:35.639Z,24.64
2023-05-09T15:13:41.042Z,24.70
2023-05-09T15:18:47.641Z,24.68
2023-05-09T15:23:53.266Z,27.12
2023-05-09T15:28:58.948Z,26.27
2023-05-09T15:34:06.712Z,26.54
2023-05-09T15:39:12.545Z,26.70
2023-05-09T15:44:18.101Z,26.80
2023-05-09T15:49:23.438Z,26.83
2023-05-09T15:54:31.841Z,26.55
2023-05-09T15:59:37.234Z,26.44
2023-05-09T16:04:44.069Z,26.30
2023-05-09T16:09:50.044Z,26.47
2023-05-09T16:14:55.464Z,26.63
2023-05-09T16:20:04.132Z,26.77
2023-05-09T16:25:14.654Z,26.86
2023-05-09T16:30:20.156Z,27.07
2023-05-09T16:35:25.962Z,27.42
2023-05-09T16:40:32.137Z,27.42
2023-05-09T16:45:37.646Z,27.66
2023-05-09T16:50:44.280Z,27.68
2023-05-09T16:55:49.815Z,27.90
2023-05-09T17:00:55.428Z,27.94
2023-05-09T17:06:01.170Z,28.14
2023-05-09T17:11:06.832Z,28.27
2023-05-09T17:16:12.629Z,28.44
2023-05-09T17:21:20.206Z,28.48
2023-05-09T17:26:26.023Z,28.68
2023-05-09T17:31:32.160Z,28.90
2023-05-09T17:36:40.074Z,29.19
2023-05-09T17:41:46.376Z,29.58
2023-05-09T17:46:51.834Z,29.73
2023-05-09T17:51:57.392Z,30.20
2023-05-09T17:57:03.233Z,30.34
2023-05-09T18:02:08.905Z,30.69
2023-05-09T18:07:14.531Z,30.96
2023-05-09T18:12:20.431Z,31.33
2023-05-09T18:17:25.891Z,31.57
2023-05-09T18:22:33.179Z,31.91
2023-05-09T18:27:39.283Z,32.26
2023-05-09T18:32:44.747Z,32.70
2023-05-09T18:37:50.647Z,33.34
2023-05-09T18:42:56.283Z,33.68
2023-05-09T18:48:02.809Z,34.10
2023-05-09T18:53:08.265Z,34.42
2023-05-09T18:58:13.769Z,34.75
2023-05-09T19:03:19.187Z,35.72
2023-05-09T19:08:26.288Z,36.56
2023-05-09T19:13:37.033Z,36.74
2023-05-09T19:18:42.595Z,36.94
2023-05-09T19:23:49.217Z,37.37
2023-05-09T19:28:55.225Z,37.56
2023-05-09T19:34:01.235Z,38.19
2023-05-09T19:39:09.267Z,38.09
2023-05-09T19:44:15.553Z,38.43
2023-05-09T19:49:20.920Z,38.61
2023-05-09T19:54:27.251Z,38.88
2023-05-09T19:59:32.619Z,39.68
2023-05-09T20:04:39.070Z,39.87
2023-05-09T20:09:44.475Z,40.94
2023-05-09T20:14:49.872Z,40.94
2023-05-09T20:19:57.707Z,41.29
2023-05-09T20:25:11.342Z,41.92
2023-05-09T20:30:34.460Z,43.26
2023-05-09T20:36:06.621Z,44.39
2023-05-09T20:41:12.696Z,43.71
2023-05-09T20:47:24.376Z,43.58
2023-05-09T20:53:17.439Z,44.03
2023-05-09T20:58:28.178Z,44.72
2023-05-09T21:03:37.589Z,44.45
2023-05-09T21:08:44.365Z,45.03
2023-05-09T21:13:49.903Z,46.55
2023-05-09T21:18:55.432Z,45.73
2023-05-09T21:24:03.308Z,45.97
2023-05-09T21:29:09.288Z,46.05
2023-05-09T21:34:14.627Z,46.80
2023-05-09T21:39:19.987Z,48.56
2023-05-09T21:44:25.574Z,49.28
2023-05-09T21:49:31.341Z,50.60
2023-05-09T21:54:36.802Z,50.60
2023-05-09T21:59:42.572Z,50.04
2023-05-09T22:04:48.098Z,50.66
2023-05-09T22:09:54.181Z,50.53
2023-05-09T22:14:59.795Z,50.99
2023-05-09T22:20:06.699Z,50.35
2023-05-09T22:25:12.249Z,51.16
2023-05-09T22:30:17.926Z,52.56
2023-05-09T22:35:23.588Z,52.54
2023-05-09T22:40:29.264Z,52.33
2023-05-09T22:45:34.774Z,53.98
2023-05-09T22:50:40.586Z,55.27
2023-05-09T22:55:46.175Z,54.67
2023-05-09T23:00:51.661Z,55.00
2023-05-09T23:05:57.262Z,56.51
2023-05-09T23:11:02.973Z,56.79
2023-05-09T23:16:08.907Z,59.40
2023-05-09T23:21:14.605Z,60.15
2023-05-09T23:26:20.836Z,60.11
2023-05-09T23:31:26.485Z,61.15
2023-05-09T23:36:32.849Z,62.09
2023-05-09T23:41:38.377Z,61.99
2023-05-09T23:46:43.907Z,62.57
2023-05-09T23:51:49.298Z,63.86
2023-05-09T23:56:57.228Z,65.31
